createdAt,value
2023-02-18T00:02:02.046Z,101489.03
2023-02-18T00:07:02.001Z,101481.59
2023-02-18T00:12:01.699Z,101471.88
2023-02-18T00:17:05.029Z,101458.78
2023-02-18T00:22:06.307Z,101445.81
2023-02-18T00:27:09.378Z,101448.00
2023-02-18T00:32:13.160Z,101457.97
2023-02-18T00:37:15.841Z,101433.19
2023-02-18T00:42:15.653Z,101412.44
2023-02-18T00:47:20.640Z,101399.22
2023-02-18T00:52:20.718Z,101395.38
2023-02-18T00:57:20.380Z,101391.16
2023-02-18T01:02:25.606Z,101378.25
2023-02-18T01:07:28.512Z,101368.22
2023-02-18T01:12:28.031Z,101364.50
2023-02-18T01:17:31.109Z,101367.09
2023-02-18T01:22:32.327Z,101355.56
2023-02-18T01:27:34.183Z,101358.94
2023-02-18T01:32:38.712Z,101346.66
2023-02-18T01:37:38.688Z,101336.06
2023-02-18T01:42:40.331Z,101353.69
2023-02-18T01:47:44.739Z,101348.63
2023-02-18T01:52:44.413Z,101345.56
2023-02-18T01:57:44.398Z,101348.31
2023-02-18T02:02:51.486Z,101334.56
2023-02-18T02:07:54.299Z,101333.38
2023-02-18T02:13:05.401Z,101322.28
2023-02-18T02:18:24.872Z,101326.03
2023-02-18T02:23:47.726Z,101311.91
2023-02-18T02:29:08.757Z,101304.84
2023-02-18T02:34:49.058Z,101291.50
2023-02-18T02:40:22.478Z,101285.28
2023-02-18T02:45:30.713Z,101295.91
2023-02-18T02:50:41.429Z,101292.97
2023-02-18T02:55:42.853Z,101304.34
2023-02-18T03:00:58.800Z,101304.78
2023-02-18T03:06:25.597Z,101307.94
2023-02-18T03:11:33.199Z,101313.38
2023-02-18T03:16:45.090Z,101307.91
2023-02-18T03:21:55.299Z,101307.63
2023-02-18T03:27:02.855Z,101288.50
2023-02-18T03:32:08.654Z,101290.09
2023-02-18T03:37:12.496Z,101283.56
2023-02-18T03:42:12.722Z,101273.47
2023-02-18T03:47:12.673Z,101266.06
2023-02-18T03:52:15.434Z,101276.09
2023-02-18T03:57:17.023Z,101255.44
2023-02-18T04:02:16.805Z,101250.72
2023-02-18T04:07:19.253Z,101238.91
2023-02-18T04:12:20.772Z,101230.00
2023-02-18T04:17:20.782Z,101219.09
2023-02-18T04:22:23.393Z,101223.03
2023-02-18T04:27:23.023Z,101213.06
2023-02-18T04:32:23.083Z,101215.16
2023-02-18T04:37:25.989Z,101218.63
2023-02-18T04:42:25.778Z,101204.03
2023-02-18T04:47:25.516Z,101212.19
2023-02-18T04:52:26.496Z,101192.44
2023-02-18T04:57:30.385Z,101180.66
2023-02-18T05:02:29.875Z,101191.41
2023-02-18T05:07:34.461Z,101179.00
2023-02-18T05:12:38.964Z,101172.56
2023-02-18T05:17:42.305Z,101169.56
2023-02-18T05:22:47.265Z,101179.66
2023-02-18T05:27:47.054Z,101196.50
2023-02-18T05:32:48.364Z,101190.38
2023-02-18T05:37:55.359Z,101204.13
2023-02-18T05:42:58.501Z,101206.63
2023-02-18T05:48:00.076Z,101210.06
2023-02-18T05:53:05.066Z,101199.53
2023-02-18T05:58:14.103Z,101217.63
2023-02-18T06:03:14.054Z,101205.56
2023-02-18T06:08:16.950Z,101207.22
2023-02-18T06:13:24.655Z,101220.84
2023-02-18T06:18:32.784Z,101215.44
2023-02-18T06:23:38.213Z,101237.91
2023-02-18T06:28:43.400Z,101234.72
2023-02-18T06:33:58.044Z,101243.19
2023-02-18T06:39:46.848Z,101241.22
2023-02-18T06:44:49.647Z,101240.22
2023-02-18T06:49:49.299Z,101228.41
2023-02-18T06:54:53.609Z,101214.81
2023-02-18T06:59:56.675Z,101239.31
2023-02-18T07:04:56.851Z,101232.81
2023-02-18T07:09:57.580Z,101225.59
2023-02-18T07:15:03.344Z,101244.31
2023-02-18T07:20:05.112Z,101231.69
2023-02-18T07:25:08.884Z,101246.25
2023-02-18T07:30:12.791Z,101250.56
2023-02-18T07:35:18.224Z,101242.16
2023-02-18T07:40:28.918Z,101225.63
2023-02-18T07:45:31.851Z,101214.56
2023-02-18T07:50:37.357Z,101221.03
2023-02-18T07:55:50.718Z,101214.44
2023-02-18T08:01:02.052Z,101227.06
2023-02-18T08:06:07.305Z,101240.78
2023-02-18T08:12:31.197Z,101211.53
2023-02-18T08:17:33.604Z,101229.00
2023-02-18T08:22:38.399Z,101200.91
2023-02-18T08:27:40.226Z,101216.59
2023-02-18T08:32:46.639Z,101204.28
2023-02-18T08:37:57.141Z,101227.91
2023-02-18T08:43:50.473Z,101194.50
2023-02-18T08:48:54.210Z,101185.97
2023-02-18T08:53:53.176Z,101193.47
2023-02-18T08:58:59.147Z,101187.19
2023-02-18T09:04:02.411Z,101194.53
2023-02-18T09:09:04.122Z,101185.19
2023-02-18T09:14:08.929Z,101191.84
2023-02-18T09:19:19.888Z,101182.22
2023-02-18T09:24:19.987Z,101207.75
2023-02-18T09:29:22.918Z,101205.47
2023-02-18T09:34:27.650Z,101190.47
2023-02-18T09:39:29.959Z,101176.50
2023-02-18T09:44:34.908Z,101186.22
2023-02-18T09:49:55.196Z,101195.41
2023-02-18T09:55:50.347Z,101203.44
2023-02-18T10:01:02.154Z,101191.41
2023-02-18T10:06:08.872Z,101178.50
2023-02-18T10:11:18.576Z,101173.19
2023-02-18T10:16:25.993Z,101166.66
2023-02-18T10:21:33.307Z,101172.78
2023-02-18T10:26:36.906Z,101209.19
2023-02-18T10:31:43.818Z,101165.25
2023-02-18T10:36:51.198Z,101146.34
2023-02-18T10:42:03.170Z,101132.47
2023-02-18T10:47:19.606Z,101132.22
2023-02-18T10:52:23.116Z,101130.22
2023-02-18T10:57:27.606Z,101152.06
2023-02-18T11:03:54.683Z,101116.97
2023-02-18T11:08:45.915Z,101100.28
2023-02-18T11:14:04.467Z,101106.91
2023-02-18T11:19:13.739Z,101111.28
2023-02-18T11:24:22.002Z,101094.13
2023-02-18T11:29:28.050Z,101095.00
2023-02-18T11:35:01.399Z,101099.25
2023-02-18T11:40:09.517Z,101072.56
2023-02-18T11:46:52.443Z,101093.09
2023-02-18T11:51:52.512Z,101077.75
2023-02-18T11:57:02.273Z,101074.66
2023-02-18T12:02:19.642Z,101061.03
2023-02-18T12:07:33.129Z,101062.44
2023-02-18T12:12:49.559Z,101047.41
2023-02-18T12:18:07.389Z,101052.91
2023-02-18T12:23:17.763Z,101036.34
2023-02-18T12:28:36.936Z,101040.81
2023-02-18T12:33:51.787Z,101036.38
2023-02-18T12:39:05.084Z,101077.59
2023-02-18T12:44:22.812Z,101037.13
2023-02-18T12:49:55.004Z,101031.19
2023-02-18T12:55:21.397Z,101014.13
2023-02-18T13:00:49.627Z,101004.94
2023-02-18T13:06:02.105Z,101012.59
2023-02-18T13:11:23.002Z,101024.63
2023-02-18T13:16:50.863Z,101009.91
2023-02-18T13:21:57.887Z,101031.81
2023-02-18T13:27:15.134Z,101002.59
2023-02-18T13:32:37.710Z,101015.50
2023-02-18T13:38:06.837Z,101019.75
2023-02-18T13:43:39.845Z,101025.03
2023-02-18T13:49:16.629Z,101020.22
2023-02-18T13:54:30.080Z,101000.53
2023-02-18T13:59:39.263Z,101004.72
2023-02-18T14:05:00.762Z,100989.75
2023-02-18T14:10:07.449Z,101015.00
2023-02-18T14:15:49.969Z,101009.50
2023-02-18T14:20:52.965Z,100991.31
2023-02-18T14:25:54.150Z,100991.78
2023-02-18T14:30:59.923Z,100993.84
2023-02-18T14:36:13.368Z,100992.31
2023-02-18T14:41:31.319Z,100990.88
2023-02-18T14:46:45.559Z,101017.56
2023-02-18T14:51:55.954Z,100979.09
2023-02-18T14:57:03.517Z,100980.06
2023-02-18T15:02:20.836Z,100976.50
2023-02-18T15:07:24.858Z,100981.31
2023-02-18T15:12:28.789Z,100978.69
2023-02-18T15:17:29.413Z,100973.69
2023-02-18T15:22:40.071Z,100975.97
2023-02-18T15:27:49.349Z,100958.75
2023-02-18T15:33:01.561Z,100981.47
2023-02-18T15:38:30.263Z,100974.72
2023-02-18T15:43:35.633Z,100969.81
2023-02-18T15:48:49.122Z,100953.81
2023-02-18T15:54:09.904Z,101000.41
2023-02-18T15:59:24.050Z,100975.16
2023-02-18T16:04:39.858Z,100949.28
2023-02-18T16:09:47.694Z,100953.22
2023-02-18T16:14:50.480Z,100950.84
2023-02-18T16:20:04.349Z,100955.66
2023-02-18T16:25:18.274Z,100955.38
2023-02-18T16:30:22.822Z,100963.25
2023-02-18T16:35:30.555Z,100975.19
2023-02-18T16:40:36.260Z,100978.00
2023-02-18T16:45:37.754Z,100990.81
2023-02-18T16:50:37.224Z,100982.97
2023-02-18T16:55:40.058Z,100997.94
2023-02-18T17:00:43.012Z,100980.66
2023-02-18T17:05:47.521Z,100989.75
2023-02-18T17:10:54.453Z,100996.13
2023-02-18T17:15:57.401Z,100987.75
2023-02-18T17:20:59.450Z,100982.03
2023-02-18T17:26:04.717Z,100983.38
2023-02-18T17:31:06.485Z,100986.44
2023-02-18T17:36:06.706Z,101003.81
2023-02-18T17:41:11.715Z,101017.16
2023-02-18T17:46:16.370Z,100996.63
2023-02-18T17:51:27.024Z,100994.59
2023-02-18T17:56:35.761Z,101009.75
2023-02-18T18:01:37.162Z,100995.38
2023-02-18T18:06:38.794Z,101001.28
2023-02-18T18:11:42.844Z,100988.13
2023-02-18T18:16:54.337Z,100993.22
2023-02-18T18:22:09.363Z,101000.41
2023-02-18T18:27:18.357Z,101004.66
2023-02-18T18:32:23.593Z,101004.88
2023-02-18T18:37:26.969Z,101024.50
2023-02-18T18:42:40.372Z,101024.72
2023-02-18T18:47:54.001Z,101051.34
2023-02-18T18:52:57.428Z,101049.03
2023-02-18T18:58:05.919Z,101045.03
2023-02-18T19:03:09.331Z,101038.69
2023-02-18T19:08:24.384Z,101045.47
2023-02-18T19:13:44.722Z,101041.91
2023-02-18T19:18:49.250Z,101045.50
2023-02-18T19:24:00.072Z,101050.28
2023-02-18T19:29:20.124Z,101052.16
2023-02-18T19:34:37.555Z,101037.44
2023-02-18T19:39:43.822Z,101030.22
2023-02-18T19:44:56.318Z,101027.28
2023-02-18T19:50:06.637Z,101022.38
2023-02-18T19:55:12.063Z,101024.78
2023-02-18T20:00:20.089Z,101026.91
2023-02-18T20:05:21.426Z,101034.19
2023-02-18T20:10:29.867Z,101026.63
2023-02-18T20:15:33.730Z,101018.78
2023-02-18T20:20:34.218Z,101028.00
2023-02-18T20:25:37.017Z,101016.94
2023-02-18T20:30:45.304Z,101018.91
2023-02-18T20:36:00.183Z,101012.66
2023-02-18T20:41:07.195Z,101031.47
2023-02-18T20:46:28.249Z,101013.94
2023-02-18T20:51:28.784Z,101016.25
2023-02-18T20:56:31.564Z,101004.19
2023-02-18T21:01:37.770Z,101002.81
2023-02-18T21:06:44.414Z,100994.06
2023-02-18T21:11:46.999Z,101002.88
2023-02-18T21:16:58.756Z,100999.56
2023-02-18T21:22:06.838Z,100994.00
2023-02-18T21:27:09.088Z,100993.91
2023-02-18T21:32:11.907Z,100992.34
2023-02-18T21:37:13.597Z,100985.38
2023-02-18T21:42:13.181Z,100980.47
2023-02-18T21:47:15.053Z,100987.81
2023-02-18T21:52:25.655Z,100977.53
2023-02-18T21:57:26.921Z,100977.84
2023-02-18T22:02:32.449Z,100979.44
2023-02-18T22:07:32.219Z,100985.66
2023-02-18T22:12:33.174Z,100963.56
2023-02-18T22:17:36.034Z,100963.63
2023-02-18T22:22:37.691Z,100964.06
2023-02-18T22:27:39.387Z,100951.81
2023-02-18T22:32:44.454Z,100956.09
2023-02-18T22:37:55.370Z,100956.50
2023-02-18T22:43:01.524Z,100959.13
2023-02-18T22:48:04.214Z,100942.78
2023-02-18T22:53:06.041Z,100939.25
2023-02-18T22:58:05.773Z,100937.09
2023-02-18T23:03:07.012Z,100931.28
2023-02-18T23:08:08.705Z,100933.41
2023-02-18T23:13:10.799Z,100922.63
2023-02-18T23:18:19.120Z,100920.09
2023-02-18T23:23:21.055Z,100919.53
2023-02-18T23:28:30.083Z,100924.56
2023-02-18T23:33:31.373Z,100906.44
2023-02-18T23:38:30.968Z,100896.97
2023-02-18T23:43:32.651Z,100876.38
2023-02-18T23:48:38.330Z,100874.59
2023-02-18T23:53:43.700Z,100871.50
2023-02-18T23:58:45.503Z,100860.63
